Time;durP1;ratioP1;P1;durP2;ratioP2;P2;SDS_P1;SDS_P2;PMS_P1;PMS_P2;Temp;Humidity;BMP_temperature;BMP_pressure;BME280_temperature;BME280_humidity;BME280_pressure;Samples;Min_cycle;Max_cycle;Signal;HPM_P1;HPM_P2
2020/10/23 00:01:59;;;;;;;6.4;2;;;;;;;12.92;80.12207;939.3449;;;;
2020/10/23 00:04:27;;;;;;;3.3;1.6;;;;;;;13.02;79.99121;939.3558;;;;
2020/10/23 00:06:52;;;;;;;1.6;1.3;;;;;;;13.07;79.62207;939.2472;;;;
2020/10/23 00:09:17;;;;;;;2.9;1.6;;;;;;;13.11;79.12402;939.2736;;;;
2020/10/23 00:11:42;;;;;;;3.7;1.7;;;;;;;12.82;80.34473;939.2816;;;;
2020/10/23 00:14:07;;;;;;;4.2;2;;;;;;;12.64;81.4834;939.2776;;;;
2020/10/23 00:16:33;;;;;;;5.1;1.7;;;;;;;12.73;81.37402;939.2603;;;;
2020/10/23 00:18:58;;;;;;;3.2;1.3;;;;;;;12.84;80.73828;939.2688;;;;
2020/10/23 00:21:24;;;;;;;8.2;1.7;;;;;;;12.92;80.68457;939.3161;;;;
2020/10/23 00:23:49;;;;;;;2.4;1.6;;;;;;;13.02;80.85449;939.3247;;;;
2020/10/23 00:26:16;;;;;;;4.8;1.9;;;;;;;13.05;80.75586;939.2599;;;;
2020/10/23 00:28:41;;;;;;;3.4;1.8;;;;;;;13.08;80.72656;939.1696;;;;
2020/10/23 00:31:07;;;;;;;3.6;1.9;;;;;;;13.13;80.64453;939.2064;;;;
2020/10/23 00:33:32;;;;;;;4.8;2.1;;;;;;;13.13;80.71387;939.3287;;;;
2020/10/23 00:35:57;;;;;;;2.2;1.3;;;;;;;13.15;80.625;939.2352;;;;
2020/10/23 00:38:22;;;;;;;2.3;1.6;;;;;;;13.19;80.8252;939.2556;;;;
2020/10/23 00:40:47;;;;;;;2.5;1.7;;;;;;;13.2;80.69238;939.3108;;;;
2020/10/23 00:43:12;;;;;;;2.9;1.6;;;;;;;13.09;80.90234;939.3208;;;;
2020/10/23 00:45:39;;;;;;;7.8;1.4;;;;;;;13.07;80.94434;939.2967;;;;
2020/10/23 00:48:02;;;;;;;2;1.3;;;;;;;12.98;81.22461;939.3418;;;;
2020/10/23 00:50:30;;;;;;;1.6;1.3;;;;;;;12.94;81.62012;939.321;;;;
2020/10/23 00:52:55;;;;;;;2.5;1.5;;;;;;;12.96;81.81641;939.3018;;;;
2020/10/23 00:55:20;;;;;;;2.8;1.6;;;;;;;13.02;81.58789;939.2463;;;;
2020/10/23 00:57:45;;;;;;;3.9;1.8;;;;;;;13.07;81.56348;939.1664;;;;
2020/10/23 01:00:28;;;;;;;2.6;1.3;;;;;;;13.12;81.42285;939.2488;;;;
2020/10/23 01:02:53;;;;;;;5.8;1.9;;;;;;;13.07;81.39063;939.2416;;;;
2020/10/23 01:05:18;;;;;;;13.5;1.4;;;;;;;13.01;81.78125;939.3371;;;;
2020/10/23 01:07:43;;;;;;;5.8;1.8;;;;;;;12.92;82.05078;939.317;;;;
2020/10/23 01:10:13;;;;;;;2.9;1.2;;;;;;;12.82;82.75586;939.264;;;;
2020/10/23 01:12:40;;;;;;;3.8;1.4;;;;;;;12.75;83.04004;939.1541;;;;
2020/10/23 01:15:05;;;;;;;3;1.7;;;;;;;12.78;83.05664;939.2349;;;;
2020/10/23 01:17:30;;;;;;;2.2;1.4;;;;;;;12.79;82.86719;939.262;;;;
2020/10/23 01:19:58;;;;;;;2.1;1.4;;;;;;;12.86;83.00488;939.2058;;;;
2020/10/23 01:22:23;;;;;;;6.4;1.5;;;;;;;12.92;82.68457;939.0779;;;;
2020/10/23 01:24:48;;;;;;;2;1.2;;;;;;;13;82.42285;939.1053;;;;
2020/10/23 01:27:15;;;;;;;4.6;1.2;;;;;;;12.94;82.63965;939.0851;;;;
2020/10/23 01:29:40;;;;;;;3.9;1.3;;;;;;;12.83;83.04395;939.1713;;;;
2020/10/23 01:32:05;;;;;;;2.4;1.6;;;;;;;12.71;83.52832;939.1916;;;;
2020/10/23 01:34:33;;;;;;;4.5;2.1;;;;;;;12.7;83.81152;939.1962;;;;
2020/10/23 01:36:58;;;;;;;8.6;2.1;;;;;;;12.78;83.44727;939.2228;;;;
2020/10/23 01:39:23;;;;;;;2.3;1.3;;;;;;;12.72;83.3584;939.1604;;;;
2020/10/23 01:41:51;;;;;;;46;23;;;;;;;12.76;83.60449;939.0974;;;;
2020/10/23 01:44:16;;;;;;;6.2;4.2;;;;;;;12.81;83.39648;939.1654;;;;
2020/10/23 01:46:42;;;;;;;1.8;0.9;;;;;;;12.69;83.87891;939.1652;;;;
2020/10/23 01:49:12;;;;;;;3;1.6;;;;;;;12.6;84.27441;939.1997;;;;
2020/10/23 01:51:34;;;;;;;1.7;1.4;;;;;;;12.68;84.37012;939.1052;;;;
2020/10/23 01:54:03;;;;;;;3.8;1.6;;;;;;;12.79;83.97852;939.055;;;;
2020/10/23 01:56:28;;;;;;;2.4;1.4;;;;;;;12.82;83.62988;939.017;;;;
2020/10/23 01:58:54;;;;;;;5.2;1.6;;;;;;;12.9;83.17285;939.0588;;;;
2020/10/23 02:01:19;;;;;;;2;1.5;;;;;;;12.94;83.12207;938.9846;;;;
2020/10/23 02:03:44;;;;;;;3.5;1.4;;;;;;;13;82.8584;938.9598;;;;
2020/10/23 02:06:09;;;;;;;2.8;1.6;;;;;;;12.92;83.41699;939.1075;;;;
2020/10/23 02:08:37;;;;;;;2.9;1.7;;;;;;;12.63;84.73828;939.1122;;;;
2020/10/23 02:11:02;;;;;;;4.2;2;;;;;;;12.65;84.71875;938.9956;;;;
2020/10/23 02:13:30;;;;;;;2.6;1.3;;;;;;;12.75;84.42871;939.0055;;;;
2020/10/23 02:16:03;;;;;;;2.2;1.4;;;;;;;12.87;83.89063;938.9508;;;;
2020/10/23 02:18:28;;;;;;;4.9;1.3;;;;;;;12.98;83.32617;938.9214;;;;
2020/10/23 02:20:54;;;;;;;3.3;1.6;;;;;;;13.03;83.01367;938.8019;;;;
2020/10/23 02:23:19;;;;;;;2.5;1.5;;;;;;;13.05;82.7998;938.7698;;;;
2020/10/23 02:25:48;;;;;;;3.9;1.9;;;;;;;13.04;82.94629;938.6683;;;;
2020/10/23 02:28:13;;;;;;;2.4;1.5;;;;;;;13.04;82.99219;938.709;;;;
2020/10/23 02:30:46;;;;;;;5.1;1.7;;;;;;;12.9;83.72363;938.7247;;;;
2020/10/23 02:33:11;;;;;;;2.1;1.3;;;;;;;12.82;84.23828;938.7046;;;;
2020/10/23 02:35:43;;;;;;;4;1.7;;;;;;;12.76;84.62598;938.685;;;;
2020/10/23 02:38:08;;;;;;;2.3;1.3;;;;;;;12.8;84.43945;938.6859;;;;
2020/10/23 02:40:36;;;;;;;4.6;1.6;;;;;;;12.85;84.3584;938.6128;;;;
2020/10/23 02:43:01;;;;;;;4.3;1.9;;;;;;;12.96;83.78027;938.5769;;;;
2020/10/23 02:45:28;;;;;;;4;1.7;;;;;;;13;83.48047;938.5673;;;;
2020/10/23 02:47:54;;;;;;;2.5;1.6;;;;;;;12.93;83.76367;938.5465;;;;
2020/10/23 02:50:20;;;;;;;3.1;1.2;;;;;;;12.86;84.16309;938.5161;;;;
2020/10/23 02:52:46;;;;;;;2.9;1.6;;;;;;;12.66;84.98633;938.4603;;;;
2020/10/23 02:55:11;;;;;;;2.7;1.4;;;;;;;12.64;85.0957;938.4724;;;;
2020/10/23 02:57:36;;;;;;;3.1;1.3;;;;;;;12.59;85.19043;938.3976;;;;
2020/10/23 03:00:01;;;;;;;3.1;1.8;;;;;;;12.6;85.00879;938.4744;;;;
2020/10/23 03:02:27;;;;;;;1.4;0.9;;;;;;;12.6;84.88086;938.3969;;;;
2020/10/23 03:04:52;;;;;;;3.1;1.6;;;;;;;12.61;84.59766;938.4152;;;;
2020/10/23 03:07:17;;;;;;;8.1;1.4;;;;;;;12.59;84.74316;938.4416;;;;
2020/10/23 03:09:45;;;;;;;2.1;1.4;;;;;;;12.57;84.16602;938.3753;;;;
2020/10/23 03:12:14;;;;;;;1.4;1;;;;;;;12.6;83.68945;938.3569;;;;
2020/10/23 03:14:39;;;;;;;2.2;1.2;;;;;;;12.63;83.58008;938.37;;;;
2020/10/23 03:17:04;;;;;;;2;1;;;;;;;12.63;83.82227;938.4044;;;;
2020/10/23 03:19:31;;;;;;;5.1;1.5;;;;;;;12.6;83.73535;938.4041;;;;
2020/10/23 03:21:57;;;;;;;3.2;1.6;;;;;;;12.58;83.51172;938.313;;;;
2020/10/23 03:24:22;;;;;;;2.6;1.2;;;;;;;12.48;83.55176;938.4373;;;;
2020/10/23 03:26:47;;;;;;;2.1;1.4;;;;;;;12.48;83.65527;938.4302;;;;
2020/10/23 03:29:14;;;;;;;6.1;2;;;;;;;12.53;83.42285;938.3624;;;;
2020/10/23 03:31:40;;;;;;;3.3;1.6;;;;;;;12.52;84.04102;938.4431;;;;
2020/10/23 03:34:06;;;;;;;2.6;1.3;;;;;;;12.5;84.19824;938.5156;;;;
2020/10/23 03:36:33;;;;;;;3.1;1.5;;;;;;;12.48;84.25195;938.3942;;;;
2020/10/23 03:38:58;;;;;;;2.8;1.5;;;;;;;12.46;84.40918;938.4669;;;;
2020/10/23 03:41:23;;;;;;;4.1;1.6;;;;;;;12.41;84.72949;938.4146;;;;
2020/10/23 03:43:48;;;;;;;5.3;1.4;;;;;;;12.31;85.25;938.4319;;;;
2020/10/23 03:46:14;;;;;;;3.4;1.9;;;;;;;12.26;85.67676;938.4117;;;;
2020/10/23 03:48:39;;;;;;;7.3;2.3;;;;;;;12.29;85.85449;938.2961;;;;
2020/10/23 03:51:07;;;;;;;4.7;2;;;;;;;12.28;85.81836;938.3304;;;;
2020/10/23 03:53:50;;;;;;;4.7;2.2;;;;;;;12.25;85.99414;938.3878;;;;
2020/10/23 03:56:15;;;;;;;2.3;1.4;;;;;;;12.28;85.99023;938.427;;;;
2020/10/23 03:58:40;;;;;;;6.1;1.5;;;;;;;12.3;85.90039;938.4725;;;;
2020/10/23 04:02:54;;;;;;;2.2;1.3;;;;;;;12.3;85.93457;938.3567;;;;
2020/10/23 04:05:20;;;;;;;3.3;1.7;;;;;;;12.32;85.89258;938.3624;;;;
2020/10/23 04:07:45;;;;;;;3;1.9;;;;;;;12.25;86.31543;938.3;;;;
2020/10/23 04:10:19;;;;;;;3;1.7;;;;;;;12.29;86.42773;938.3983;;;;
2020/10/23 04:12:44;;;;;;;2.1;1.4;;;;;;;12.31;86.4082;938.3872;;;;
2020/10/23 04:15:10;;;;;;;2.6;1.4;;;;;;;12.41;86.16602;938.3645;;;;
2020/10/23 04:17:36;;;;;;;5.3;1.6;;;;;;;12.47;85.54395;938.3399;;;;
2020/10/23 04:20:00;;;;;;;2.3;1.3;;;;;;;12.37;86.08691;938.3442;;;;
2020/10/23 04:22:27;;;;;;;6;1.9;;;;;;;12.26;86.60352;938.3965;;;;
2020/10/23 04:24:55;;;;;;;1.6;1.5;;;;;;;12.28;86.50586;938.399;;;;
2020/10/23 04:27:21;;;;;;;3.1;1.6;;;;;;;12.26;86.75488;938.371;;;;
2020/10/23 04:29:45;;;;;;;3;1.5;;;;;;;12.18;87.22949;938.3098;;;;
2020/10/23 04:32:11;;;;;;;3.1;1.4;;;;;;;12.08;87.72656;938.2225;;;;
2020/10/23 04:34:36;;;;;;;2.8;1.6;;;;;;;12.07;88.12207;938.1881;;;;
2020/10/23 04:37:04;;;;;;;4.4;1.4;;;;;;;12.2;87.49609;938.1214;;;;
2020/10/23 04:39:29;;;;;;;2.6;1.8;;;;;;;12.28;86.85938;938.0389;;;;
2020/10/23 04:41:56;;;;;;;4.8;1.5;;;;;;;12.31;86.64941;938.087;;;;
2020/10/23 04:44:21;;;;;;;4.6;1.8;;;;;;;12.35;86.30078;937.9936;;;;
2020/10/23 04:46:47;;;;;;;4.4;1.9;;;;;;;12.23;86.5752;937.951;;;;
2020/10/23 04:49:12;;;;;;;2.2;1.7;;;;;;;12.25;86.65723;937.8848;;;;
2020/10/23 04:51:38;;;;;;;4.6;1.6;;;;;;;12.29;86.3584;937.916;;;;
2020/10/23 04:54:04;;;;;;;4.5;1.7;;;;;;;12.26;86.36328;937.9399;;;;
2020/10/23 04:56:30;;;;;;;3.7;1.8;;;;;;;12.08;87.26855;937.8497;;;;
2020/10/23 04:58:55;;;;;;;4;1.6;;;;;;;12.08;87.46191;937.9008;;;;
2020/10/23 05:01:23;;;;;;;2.2;1.7;;;;;;;12.17;87.07813;937.8069;;;;
2020/10/23 05:03:48;;;;;;;2.2;1.5;;;;;;;12.24;86.55469;937.7371;;;;
2020/10/23 05:06:13;;;;;;;4.3;1.6;;;;;;;12.27;86.08984;937.6501;;;;
2020/10/23 05:08:41;;;;;;;1.9;1.4;;;;;;;12.26;85.97363;937.6445;;;;
2020/10/23 05:11:06;;;;;;;3.1;1.8;;;;;;;12.19;86.40625;937.652;;;;
2020/10/23 05:13:31;;;;;;;6.1;1.5;;;;;;;12.15;86.16992;937.5609;;;;
2020/10/23 05:16:01;;;;;;;2.5;1.5;;;;;;;11.99;87.19336;937.5331;;;;
2020/10/23 05:18:26;;;;;;;4.2;1.6;;;;;;;12;87.18359;937.4558;;;;
2020/10/23 05:20:52;;;;;;;2.2;1.6;;;;;;;12.01;87.05957;937.4877;;;;
2020/10/23 05:23:18;;;;;;;5.1;1.8;;;;;;;11.98;86.93945;937.463;;;;
2020/10/23 05:25:44;;;;;;;2;1.3;;;;;;;11.94;87.1709;937.5107;;;;
2020/10/23 05:29:09;;;;;;;2.8;1.6;;;;;;;11.95;86.72363;937.537;;;;
2020/10/23 05:31:36;;;;;;;2.4;1.5;;;;;;;11.89;86.9541;937.4691;;;;
2020/10/23 05:34:04;;;;;;;7.5;2;;;;;;;11.87;86.98438;937.4419;;;;
2020/10/23 05:36:29;;;;;;;5.1;2;;;;;;;11.81;87.10938;937.5068;;;;
2020/10/23 05:38:55;;;;;;;4.4;2.1;;;;;;;11.76;86.85938;937.4904;;;;
2020/10/23 05:41:21;;;;;;;3.2;1.7;;;;;;;11.77;87.125;937.4529;;;;
2020/10/23 05:44:05;;;;;;;2.8;1.6;;;;;;;11.78;86.89746;937.4037;;;;
2020/10/23 05:46:13;;;;;;;3.5;1.7;;;;;;;11.78;86.71484;937.4808;;;;
2020/10/23 05:48:38;;;;;;;2.8;1.5;;;;;;;11.65;87.19238;937.517;;;;
2020/10/23 05:51:03;;;;;;;13;1.9;;;;;;;11.53;87.91309;937.5044;;;;
2020/10/23 05:53:29;;;;;;;2.9;1.9;;;;;;;11.52;87.94336;937.5466;;;;
2020/10/23 05:56:06;;;;;;;2.2;1.6;;;;;;;11.54;87.8457;937.5267;;;;
2020/10/23 05:58:59;;;;;;;4.8;1.8;;;;;;;11.55;87.06934;937.601;;;;
2020/10/23 06:01:25;;;;;;;3;1.9;;;;;;;11.62;86.46484;937.6096;;;;
2020/10/23 06:03:53;;;;;;;3.4;2.2;;;;;;;11.64;86.37793;937.5433;;;;
2020/10/23 06:06:19;;;;;;;4;2.1;;;;;;;11.65;86.41406;937.6176;;;;
2020/10/23 06:08:44;;;;;;;4;2;;;;;;;11.62;86.43164;937.6486;;;;
2020/10/23 06:11:09;;;;;;;4.6;2.6;;;;;;;11.35;87.89746;937.6387;;;;
2020/10/23 06:13:36;;;;;;;5.6;2.8;;;;;;;11.36;87.82129;937.6572;;;;
2020/10/23 06:16:01;;;;;;;5.4;3;;;;;;;11.44;87.64258;937.6873;;;;
2020/10/23 06:18:31;;;;;;;3;2.2;;;;;;;11.51;87.09277;937.6358;;;;
2020/10/23 06:20:56;;;;;;;7.8;2.4;;;;;;;11.62;86.61328;937.7601;;;;
2020/10/23 06:23:23;;;;;;;6.4;1.9;;;;;;;11.67;86.00586;937.6967;;;;
2020/10/23 06:25:48;;;;;;;3.2;2.2;;;;;;;11.71;85.72656;937.7303;;;;
2020/10/23 06:28:16;;;;;;;5.7;2.2;;;;;;;11.69;85.9541;937.6497;;;;
2020/10/23 06:30:48;;;;;;;5.4;2.3;;;;;;;11.69;86.07617;937.711;;;;
2020/10/23 06:33:20;;;;;;;2.5;1.6;;;;;;;11.83;85.77246;937.6747;;;;
2020/10/23 06:35:46;;;;;;;2.3;1.4;;;;;;;11.9;85.67285;937.7395;;;;
2020/10/23 06:38:16;;;;;;;2.5;1.4;;;;;;;12.09;85.25195;937.7604;;;;
2020/10/23 06:40:41;;;;;;;2.9;1.4;;;;;;;12.23;84.76465;937.6812;;;;
2020/10/23 06:43:10;;;;;;;3.2;1;;;;;;;12.45;83.87988;937.7849;;;;
2020/10/23 06:45:36;;;;;;;4.2;1.9;;;;;;;12.63;82.92773;937.735;;;;
2020/10/23 06:48:01;;;;;;;9.2;1.6;;;;;;;12.85;82.38379;937.6635;;;;
2020/10/23 06:50:30;;;;;;;4.2;1.5;;;;;;;12.92;81.60547;937.6489;;;;
2020/10/23 06:52:53;;;;;;;3.7;1.5;;;;;;;13.01;81.16113;937.6641;;;;
2020/10/23 06:55:19;;;;;;;1.3;1;;;;;;;13.24;80.51563;937.6838;;;;
2020/10/23 06:57:44;;;;;;;2.2;1.3;;;;;;;13.35;79.17969;937.5421;;;;
2020/10/23 07:00:22;;;;;;;2.2;1.2;;;;;;;13.47;78.79688;937.5988;;;;
2020/10/23 07:02:51;;;;;;;1.8;1.1;;;;;;;13.52;78.79492;937.6027;;;;
2020/10/23 07:05:16;;;;;;;1.2;0.9;;;;;;;13.78;78.99219;937.5869;;;;
2020/10/23 07:07:42;;;;;;;4.9;1.3;;;;;;;14;78.27344;937.5789;;;;
2020/10/23 07:10:07;;;;;;;1.8;1.3;;;;;;;14;76.61621;937.5276;;;;
2020/10/23 07:12:32;;;;;;;3.9;1.5;;;;;;;13.83;76.15039;937.4917;;;;
2020/10/23 07:15:00;;;;;;;3.3;1.8;;;;;;;13.78;76.72559;937.4796;;;;
2020/10/23 07:17:25;;;;;;;1.2;1;;;;;;;13.81;76.35254;937.5123;;;;
2020/10/23 07:19:50;;;;;;;1.8;1.1;;;;;;;13.95;75.69727;937.6;;;;
2020/10/23 07:22:15;;;;;;;3.1;1.1;;;;;;;14.06;75.75195;937.5909;;;;
2020/10/23 07:24:40;;;;;;;2.5;1.3;;;;;;;14.13;75.77637;937.5321;;;;
2020/10/23 07:27:07;;;;;;;2.4;1.3;;;;;;;14.05;76.46289;937.5701;;;;
2020/10/23 07:29:34;;;;;;;5.7;1.4;;;;;;;13.98;77.46289;937.6199;;;;
2020/10/23 07:31:59;;;;;;;3.5;1.6;;;;;;;13.97;77.6123;937.6696;;;;
2020/10/23 07:34:24;;;;;;;1.9;1.1;;;;;;;13.8;77.66113;937.6124;;;;
2020/10/23 07:36:49;;;;;;;1.5;1.3;;;;;;;13.81;77.79102;937.5955;;;;
2020/10/23 07:39:16;;;;;;;2;1.3;;;;;;;13.98;78.00391;937.4878;;;;
2020/10/23 07:41:47;;;;;;;2.8;1.7;;;;;;;14.02;77.14844;937.4815;;;;
2020/10/23 07:44:12;;;;;;;3.4;2;;;;;;;13.66;78.76563;937.5801;;;;
2020/10/23 07:46:37;;;;;;;5.2;2;;;;;;;13.58;79.3125;937.492;;;;
2020/10/23 07:49:03;;;;;;;3.1;1.9;;;;;;;13.8;79.44531;937.5516;;;;
2020/10/23 07:51:31;;;;;;;2.5;1.4;;;;;;;14.07;78.43652;937.5461;;;;
2020/10/23 07:53:56;;;;;;;2.9;1.2;;;;;;;14.08;78.27637;937.5564;;;;
2020/10/23 07:56:23;;;;;;;8.8;1.7;;;;;;;14.27;77.95215;937.5637;;;;
2020/10/23 07:58:48;;;;;;;2.3;1.3;;;;;;;14.45;77.375;937.5583;;;;
2020/10/23 08:01:18;;;;;;;2.9;1.7;;;;;;;14.7;76.25391;937.5584;;;;
2020/10/23 08:03:43;;;;;;;3;1.5;;;;;;;14.85;75.72754;937.5415;;;;
2020/10/23 08:06:08;;;;;;;3.7;2.2;;;;;;;14.99;75.1416;937.4681;;;;
2020/10/23 08:08:35;;;;;;;3.2;1.6;;;;;;;15.22;74.25684;937.4955;;;;
2020/10/23 08:11:00;;;;;;;5.4;2.1;;;;;;;15.19;75.04883;937.676;;;;
2020/10/23 08:13:25;;;;;;;2.9;1.7;;;;;;;15.21;74.38184;937.5891;;;;
2020/10/23 08:15:53;;;;;;;4;1.7;;;;;;;15.33;74.25195;937.6035;;;;
2020/10/23 08:18:18;;;;;;;2.5;1.9;;;;;;;15.14;76.14648;937.6716;;;;
2020/10/23 08:20:51;;;;;;;3;1.6;;;;;;;15.07;75.82227;937.4861;;;;
2020/10/23 08:23:16;;;;;;;2.5;1.7;;;;;;;15.3;72.39941;937.4827;;;;
2020/10/23 08:25:45;;;;;;;3.2;1.8;;;;;;;15.47;71.45703;937.4419;;;;
2020/10/23 08:28:10;;;;;;;4.5;1.9;;;;;;;15.56;70.91895;937.4706;;;;
2020/10/23 08:30:41;;;;;;;2.6;1.5;;;;;;;15.69;70.1543;937.4119;;;;
2020/10/23 08:33:09;;;;;;;5.6;1.8;;;;;;;15.79;69.58008;937.4044;;;;
2020/10/23 08:35:34;;;;;;;4.3;1.5;;;;;;;15.65;70.20605;937.3514;;;;
2020/10/23 08:38:04;;;;;;;17.2;2.8;;;;;;;15.74;68.94922;937.2756;;;;
2020/10/23 08:40:29;;;;;;;8.2;1.6;;;;;;;15.76;70.56836;937.3059;;;;
2020/10/23 08:42:57;;;;;;;3.9;1.5;;;;;;;15.77;68.54883;937.3308;;;;
2020/10/23 08:45:32;;;;;;;2.5;1.4;;;;;;;15.73;68.78516;937.2349;;;;
2020/10/23 08:47:59;;;;;;;3.8;2;;;;;;;15.93;69.08301;937.1588;;;;
2020/10/23 08:50:27;;;;;;;11.4;1.7;;;;;;;16.02;67.8252;937.0897;;;;
2020/10/23 08:52:52;;;;;;;7.4;1.5;;;;;;;16.17;66.65625;937.1317;;;;
2020/10/23 08:55:24;;;;;;;7.8;1.4;;;;;;;16.26;66.4502;937.1364;;;;
2020/10/23 08:57:52;;;;;;;3.1;1.6;;;;;;;16.35;66.01172;937.1432;;;;
2020/10/23 09:00:28;;;;;;;2.4;1.2;;;;;;;16.43;65.20508;937.0771;;;;
2020/10/23 09:02:54;;;;;;;1.4;1;;;;;;;16.52;65.42578;936.9721;;;;
2020/10/23 09:05:26;;;;;;;3.5;1.1;;;;;;;16.59;64.97266;936.9348;;;;
2020/10/23 09:07:54;;;;;;;2.1;1.4;;;;;;;16.53;63.60938;936.9302;;;;
2020/10/23 09:10:19;;;;;;;12.9;1.4;;;;;;;16.45;63.71289;936.8864;;;;
2020/10/23 09:12:45;;;;;;;3.2;1.5;;;;;;;16.4;66.45996;936.8949;;;;
2020/10/23 09:15:11;;;;;;;4.9;2.7;;;;;;;16.36;67.7041;936.8931;;;;
2020/10/23 09:17:38;;;;;;;8.1;3.2;;;;;;;16.3;68.39941;936.9888;;;;
2020/10/23 09:20:03;;;;;;;6.7;3.2;;;;;;;16.37;68.50391;936.9983;;;;
2020/10/23 09:22:28;;;;;;;6.4;2.9;;;;;;;16.51;68.32813;937.0278;;;;
2020/10/23 09:24:53;;;;;;;6.1;3.1;;;;;;;16.67;68.5752;936.9575;;;;
2020/10/23 09:27:18;;;;;;;4.7;2.7;;;;;;;16.77;67.76758;936.9783;;;;
2020/10/23 09:29:43;;;;;;;3.7;2.1;;;;;;;16.69;66.52832;936.954;;;;
2020/10/23 09:32:11;;;;;;;2.9;1.8;;;;;;;16.71;65.38379;936.8765;;;;
2020/10/23 09:34:36;;;;;;;13.3;2.5;;;;;;;16.84;66.08789;936.8865;;;;
2020/10/23 09:37:01;;;;;;;3.3;1.7;;;;;;;16.79;64.8291;936.9241;;;;
2020/10/23 09:39:27;;;;;;;3.3;1.7;;;;;;;16.8;65.20117;936.8201;;;;
2020/10/23 09:41:52;;;;;;;2.1;1.5;;;;;;;17.12;63.55664;936.705;;;;
2020/10/23 09:44:17;;;;;;;4.3;1.7;;;;;;;17.44;63.56641;936.6747;;;;
2020/10/23 09:46:43;;;;;;;4.1;1.3;;;;;;;17.7;60.50684;936.678;;;;
2020/10/23 09:49:08;;;;;;;1.9;1.1;;;;;;;17.82;58.35156;936.7145;;;;
2020/10/23 09:51:33;;;;;;;2;1.3;;;;;;;17.93;57.71582;936.6348;;;;
2020/10/23 09:53:59;;;;;;;2.7;1.1;;;;;;;18.09;58.1084;936.6848;;;;
2020/10/23 09:56:26;;;;;;;1.7;0.9;;;;;;;18.26;58.74707;936.6113;;;;
2020/10/23 09:58:51;;;;;;;1.4;1;;;;;;;18.44;57.55078;936.6163;;;;
2020/10/23 10:01:16;;;;;;;6.7;1.7;;;;;;;18.66;57.49707;936.5502;;;;
2020/10/23 10:03:41;;;;;;;5.1;1.6;;;;;;;18.79;54.74609;936.5413;;;;
2020/10/23 10:06:07;;;;;;;3.9;1.7;;;;;;;18.87;54.69531;936.556;;;;
2020/10/23 10:08:32;;;;;;;3.8;1.4;;;;;;;18.86;55.44043;936.4972;;;;
2020/10/23 10:10:57;;;;;;;2;1.2;;;;;;;19.12;57.60449;936.5272;;;;
2020/10/23 10:13:22;;;;;;;2.9;1.4;;;;;;;19.2;59.36133;936.4628;;;;
2020/10/23 10:15:47;;;;;;;5.4;1.5;;;;;;;19.28;59.94238;936.4296;;;;
2020/10/23 10:18:19;;;;;;;2.7;1.2;;;;;;;19.53;57.94824;936.4319;;;;
2020/10/23 10:20:49;;;;;;;1.5;1.1;;;;;;;19.79;57.07324;936.358;;;;
2020/10/23 10:23:09;;;;;;;2.1;1;;;;;;;19.75;57.70996;936.3502;;;;
2020/10/23 10:25:34;;;;;;;2.7;1.3;;;;;;;19.67;58.39941;936.2209;;;;
2020/10/23 10:28:02;;;;;;;1.8;1;;;;;;;19.89;57.85645;936.2453;;;;
2020/10/23 10:30:30;;;;;;;5;2.1;;;;;;;20.01;57.1709;936.149;;;;
2020/10/23 10:32:58;;;;;;;2;1.5;;;;;;;20.16;58.26465;936.1962;;;;
2020/10/23 10:35:23;;;;;;;3.4;1.4;;;;;;;20.25;57.69336;936.2269;;;;
2020/10/23 10:37:49;;;;;;;3.7;1.1;;;;;;;20.48;55.23633;936.2316;;;;
2020/10/23 10:40:17;;;;;;;4.2;1.4;;;;;;;20.57;54.42969;936.1672;;;;
2020/10/23 10:42:43;;;;;;;2.1;1.2;;;;;;;20.67;54.58203;936.1326;;;;
2020/10/23 10:45:08;;;;;;;8;1.7;;;;;;;20.73;54.02734;936.0393;;;;
2020/10/23 10:47:33;;;;;;;1.6;0.8;;;;;;;20.73;53.79297;936.101;;;;
2020/10/23 10:49:59;;;;;;;2.1;1;;;;;;;20.71;54.18945;936.0578;;;;
2020/10/23 10:52:29;;;;;;;1.3;0.7;;;;;;;20.71;52.66992;935.96;;;;
2020/10/23 10:54:53;;;;;;;2.1;1;;;;;;;20.71;52.05078;935.968;;;;
2020/10/23 10:57:19;;;;;;;0.8;0.6;;;;;;;20.7;52.99512;935.9062;;;;
2020/10/23 10:59:45;;;;;;;1.9;1.2;;;;;;;20.62;54.45801;935.813;;;;
2020/10/23 11:02:12;;;;;;;2;0.7;;;;;;;20.61;54.16504;935.7792;;;;
2020/10/23 11:04:38;;;;;;;2.5;1.1;;;;;;;20.57;52.93359;935.8063;;;;
2020/10/23 11:07:03;;;;;;;1.3;0.6;;;;;;;20.55;52.44043;935.7619;;;;
2020/10/23 11:09:28;;;;;;;2;0.9;;;;;;;20.58;53.08594;935.6556;;;;
2020/10/23 11:11:53;;;;;;;1.6;0.8;;;;;;;20.64;52.49805;935.6119;;;;
2020/10/23 11:14:21;;;;;;;2.3;1.2;;;;;;;20.75;52.79102;935.6446;;;;
2020/10/23 11:16:45;;;;;;;1.4;0.7;;;;;;;20.73;53.32617;935.6323;;;;
2020/10/23 11:19:11;;;;;;;2.6;0.8;;;;;;;20.8;53.26465;935.5925;;;;
2020/10/23 11:21:40;;;;;;;1.1;0.8;;;;;;;20.78;52.78223;935.5911;;;;
2020/10/23 11:24:06;;;;;;;1.7;0.6;;;;;;;20.85;52.33496;935.6141;;;;
2020/10/23 11:26:30;;;;;;;1.4;1;;;;;;;20.84;52.75488;935.6694;;;;
2020/10/23 11:28:58;;;;;;;3.5;1.2;;;;;;;20.73;52.96484;935.663;;;;
2020/10/23 11:31:29;;;;;;;2.1;1;;;;;;;20.52;53.29004;935.6061;;;;
2020/10/23 11:33:57;;;;;;;1.4;1;;;;;;;20.42;54.29395;935.6315;;;;
2020/10/23 11:36:22;;;;;;;3;1.7;;;;;;;20.51;53.86133;935.616;;;;
2020/10/23 11:38:54;;;;;;;1.8;0.7;;;;;;;20.64;53.93555;935.5851;;;;
2020/10/23 11:41:22;;;;;;;1.5;0.7;;;;;;;20.71;53.52246;935.5681;;;;
2020/10/23 11:43:47;;;;;;;0.9;0.8;;;;;;;20.83;53.24512;935.4933;;;;
2020/10/23 11:46:12;;;;;;;2;0.7;;;;;;;20.84;53.3877;935.5123;;;;
2020/10/23 11:48:38;;;;;;;2.8;0.7;;;;;;;20.73;51.60938;935.514;;;;
2020/10/23 11:51:04;;;;;;;3.5;1.1;;;;;;;20.72;50.89453;935.4506;;;;
2020/10/23 11:53:30;;;;;;;2.2;0.9;;;;;;;20.74;50.97949;935.4353;;;;
2020/10/23 11:55:55;;;;;;;1.6;0.8;;;;;;;20.65;51.7627;935.3875;;;;
2020/10/23 11:58:20;;;;;;;1.5;1.2;;;;;;;20.61;51.6416;935.4726;;;;
2020/10/23 12:00:50;;;;;;;2.3;1;;;;;;;20.47;51.58984;935.5136;;;;
2020/10/23 12:03:20;;;;;;;1.8;0.8;;;;;;;20.54;51.68066;935.3859;;;;
2020/10/23 12:05:45;;;;;;;5.4;1.2;;;;;;;20.46;52.47754;935.3723;;;;
2020/10/23 12:08:10;;;;;;;1.9;0.8;;;;;;;20.35;52.13672;935.3133;;;;
2020/10/23 12:10:46;;;;;;;2.4;0.9;;;;;;;20.39;51.55762;935.324;;;;
2020/10/23 12:13:17;;;;;;;3.5;0.8;;;;;;;20.1;52.63281;935.3792;;;;
2020/10/23 12:15:42;;;;;;;2.6;0.9;;;;;;;20.18;52.78223;935.3644;;;;
2020/10/23 12:18:06;;;;;;;7.8;0.8;;;;;;;20.18;53.30762;935.332;;;;
2020/10/23 12:20:32;;;;;;;1.2;0.8;;;;;;;20.15;52.83594;935.3292;;;;
2020/10/23 12:22:57;;;;;;;2.3;1;;;;;;;20.14;53.02148;935.3837;;;;
2020/10/23 12:25:24;;;;;;;1.1;0.7;;;;;;;20.08;52.53711;935.3337;;;;
2020/10/23 12:27:49;;;;;;;1.7;1.1;;;;;;;20;53.39063;935.2213;;;;
2020/10/23 12:30:27;;;;;;;2.5;0.9;;;;;;;20.06;53.51465;935.3377;;;;
2020/10/23 12:32:53;;;;;;;1.5;0.9;;;;;;;20.03;54.07129;935.2781;;;;
2020/10/23 12:35:18;;;;;;;12.1;1.2;;;;;;;19.93;54.1748;935.2204;;;;
2020/10/23 12:37:46;;;;;;;3.3;1.3;;;;;;;19.86;54.70313;935.1479;;;;
2020/10/23 12:40:11;;;;;;;1.6;1;;;;;;;19.85;55.16895;935.1741;;;;
2020/10/23 12:42:39;;;;;;;2.3;1.2;;;;;;;19.9;55.15137;935.2286;;;;
2020/10/23 12:45:03;;;;;;;3.5;0.9;;;;;;;19.89;55.11621;935.1631;;;;
2020/10/23 12:47:30;;;;;;;4.8;0.9;;;;;;;19.82;54.84961;935.1161;;;;
2020/10/23 12:49:55;;;;;;;1.9;0.8;;;;;;;19.66;54.57227;935.0555;;;;
2020/10/23 12:52:21;;;;;;;1.2;0.9;;;;;;;19.69;55.43848;935.0547;;;;
2020/10/23 12:54:46;;;;;;;0.9;0.7;;;;;;;19.72;55.79297;934.943;;;;
2020/10/23 12:57:12;;;;;;;2.6;0.8;;;;;;;19.77;55.77539;934.9543;;;;
2020/10/23 12:59:38;;;;;;;3.6;1.4;;;;;;;19.82;55.87695;935.0119;;;;
2020/10/23 13:02:06;;;;;;;3.7;1.1;;;;;;;19.89;55.79102;934.9976;;;;
2020/10/23 13:04:31;;;;;;;2.1;1.1;;;;;;;19.83;55.96973;934.8995;;;;
2020/10/23 13:06:57;;;;;;;11.6;1.4;;;;;;;19.87;55.98828;934.8875;;;;
2020/10/23 13:09:22;;;;;;;8.5;0.9;;;;;;;19.87;55.82422;934.8901;;;;
2020/10/23 13:11:47;;;;;;;0.8;0.7;;;;;;;19.87;55.62695;934.8971;;;;
2020/10/23 13:14:13;;;;;;;3.5;1.4;;;;;;;19.84;55.09668;934.8934;;;;
2020/10/23 13:16:38;;;;;;;1.4;1;;;;;;;19.78;55.24121;934.8684;;;;
2020/10/23 13:19:05;;;;;;;4.8;0.9;;;;;;;19.78;55.36914;934.8716;;;;
2020/10/23 13:21:31;;;;;;;1.1;0.8;;;;;;;19.75;55.7041;934.8903;;;;
2020/10/23 13:23:57;;;;;;;2.8;1;;;;;;;19.58;55.87988;935.0084;;;;
2020/10/23 13:26:22;;;;;;;14.5;2.3;;;;;;;19.44;56.98145;935.0397;;;;
2020/10/23 13:28:51;;;;;;;3.9;1.3;;;;;;;19.36;58.08887;934.9433;;;;
2020/10/23 13:31:25;;;;;;;2.2;1.4;;;;;;;19.34;58.26172;934.7178;;;;
2020/10/23 13:33:51;;;;;;;3.1;1.4;;;;;;;19.3;58.18555;934.6431;;;;
2020/10/23 13:36:19;;;;;;;2.7;1.2;;;;;;;19.37;58.84863;934.7508;;;;
2020/10/23 13:38:47;;;;;;;7.8;1.6;;;;;;;19.37;58.3584;934.7598;;;;
2020/10/23 13:41:12;;;;;;;1.3;0.9;;;;;;;19.39;57.87305;934.7986;;;;
2020/10/23 13:43:38;;;;;;;2.7;1.1;;;;;;;19.43;58.05176;934.8881;;;;
2020/10/23 13:46:05;;;;;;;1.7;0.8;;;;;;;19.5;59.01758;934.8851;;;;
2020/10/23 13:48:33;;;;;;;2.5;1.3;;;;;;;19.57;59.56348;934.9231;;;;
2020/10/23 13:50:59;;;;;;;2.7;1.5;;;;;;;19.58;59.15527;934.9041;;;;
2020/10/23 13:53:25;;;;;;;3.7;1.4;;;;;;;19.51;60.55566;934.9197;;;;
2020/10/23 13:55:56;;;;;;;4.8;0.9;;;;;;;19.58;59.45898;934.9744;;;;
2020/10/23 13:58:24;;;;;;;1;0.7;;;;;;;19.5;59.15723;935.0403;;;;
2020/10/23 14:00:58;;;;;;;2.2;1.1;;;;;;;19.62;59.01074;935.0789;;;;
2020/10/23 14:03:24;;;;;;;2.3;1;;;;;;;19.67;58.48047;935.0689;;;;
2020/10/23 14:05:53;;;;;;;2.9;1.3;;;;;;;19.72;58.32324;934.9777;;;;
2020/10/23 14:08:18;;;;;;;13.5;1.3;;;;;;;19.77;59.29688;935.0853;;;;
2020/10/23 14:10:44;;;;;;;2.8;1.5;;;;;;;19.77;59.28711;935.0907;;;;
2020/10/23 14:13:09;;;;;;;3.6;1.2;;;;;;;19.74;57.73242;935.1191;;;;
2020/10/23 14:15:34;;;;;;;1.7;0.6;;;;;;;19.74;57.34766;935.0294;;;;
2020/10/23 14:17:59;;;;;;;1.6;0.6;;;;;;;19.69;57.22461;934.9712;;;;
2020/10/23 14:20:27;;;;;;;1.2;0.8;;;;;;;19.66;57.32422;934.9796;;;;
2020/10/23 14:22:52;;;;;;;5.7;1;;;;;;;19.58;57.81543;934.9832;;;;
2020/10/23 14:25:18;;;;;;;1.8;1.1;;;;;;;19.42;59.00684;935.0627;;;;